createdAt,value
2023-02-22T00:01:32.650Z,7.4
2023-02-22T00:03:34.599Z,7.3
2023-02-22T00:05:36.570Z,7.3
2023-02-22T00:07:38.545Z,7.3
2023-02-22T00:11:45.537Z,7.3
2023-02-22T00:13:47.495Z,7.3
2023-02-22T00:15:49.594Z,7.3
2023-02-22T00:18:53.920Z,7.3
2023-02-22T00:20:55.925Z,7.3
2023-02-22T00:22:57.872Z,7.3
2023-02-22T00:27:04.853Z,7.3
2023-02-22T00:29:06.812Z,7.3
2023-02-22T00:31:08.797Z,7.3
2023-02-22T00:33:10.744Z,7.3
2023-02-22T00:35:12.728Z,7.3
2023-02-22T00:37:14.709Z,7.3
2023-02-22T00:39:19.720Z,7.3
2023-02-22T00:41:21.746Z,7.3
2023-02-22T00:43:23.659Z,7.2
2023-02-22T00:45:25.621Z,7.3
2023-02-22T00:47:27.584Z,7.2
2023-02-22T00:49:29.557Z,7.2
2023-02-22T00:51:31.690Z,7.2
2023-02-22T00:53:36.524Z,7.2
2023-02-22T00:55:38.500Z,7.2
2023-02-22T00:57:40.447Z,7.2
2023-02-22T00:59:42.416Z,7.2
2023-02-22T01:01:44.371Z,7.2
2023-02-22T01:03:46.352Z,7.2
2023-02-22T01:05:48.312Z,7.2
2023-02-22T01:07:53.346Z,7.2
2023-02-22T01:09:55.289Z,7.2
2023-02-22T01:11:57.258Z,7.2
2023-02-22T01:12:59.750Z,7.1
2023-02-22T01:15:01.741Z,7.1
2023-02-22T01:17:03.672Z,7.1
2023-02-22T01:19:05.648Z,7.1
2023-02-22T01:25:14.586Z,7.1
2023-02-22T01:27:16.551Z,7.1
2023-02-22T01:29:18.512Z,7.1
2023-02-22T01:31:20.713Z,7.1
2023-02-22T01:33:22.444Z,7.1
2023-02-22T01:35:27.460Z,7.1
2023-02-22T01:37:29.429Z,7
2023-02-22T01:39:31.385Z,7.1
2023-02-22T01:41:33.345Z,7.1
2023-02-22T01:43:35.540Z,7
2023-02-22T01:45:37.286Z,7
2023-02-22T01:51:46.257Z,7
2023-02-22T01:53:48.231Z,6.9
2023-02-22T01:55:50.162Z,7
2023-02-22T01:57:52.120Z,6.9
2023-02-22T01:59:54.084Z,6.9
2023-02-22T02:01:56.046Z,6.9
2023-02-22T02:04:01.065Z,6.9
2023-02-22T02:06:03.010Z,6.9
2023-02-22T02:08:04.975Z,6.9
2023-02-22T02:09:07.474Z,6.9
2023-02-22T02:11:09.439Z,6.9
2023-02-22T02:25:26.224Z,6.7
2023-02-22T02:27:28.192Z,6.7
2023-02-22T02:29:30.180Z,6.7
2023-02-22T02:31:35.358Z,6.7
2023-02-22T02:33:37.150Z,6.7
2023-02-22T02:35:39.124Z,6.7
2023-02-22T02:37:41.084Z,6.7
2023-02-22T02:39:43.059Z,6.6
2023-02-22T02:41:44.981Z,6.6
2023-02-22T02:43:46.980Z,6.7
2023-02-22T02:45:51.960Z,6.6
2023-02-22T02:47:53.909Z,6.6
2023-02-22T02:49:56.062Z,6.6
2023-02-22T02:51:57.840Z,6.6
2023-02-22T02:53:59.799Z,6.6
2023-02-22T02:56:01.778Z,6.5
2023-02-22T02:58:03.725Z,6.5
2023-02-22T03:00:08.757Z,6.5
2023-02-22T03:02:10.701Z,6.5
2023-02-22T03:04:12.660Z,6.5
2023-02-22T03:06:33.398Z,6.4
2023-02-22T03:08:35.345Z,6.5
2023-02-22T03:10:37.311Z,6.4
2023-02-22T03:12:42.333Z,6.4
2023-02-22T03:16:46.272Z,6.4
2023-02-22T03:41:16.275Z,6.1
2023-02-22T03:43:17.895Z,6.2
2023-02-22T03:51:25.694Z,6
2023-02-22T03:53:27.655Z,6
2023-02-22T03:55:32.683Z,5.9
2023-02-22T03:59:36.562Z,5.9
2023-02-22T04:00:39.107Z,5.8
2023-02-22T04:02:41.105Z,5.8
2023-02-22T04:04:43.000Z,5.9
2023-02-22T04:06:44.921Z,5.9
2023-02-22T04:08:49.949Z,5.8
2023-02-22T04:10:51.915Z,5.8
2023-02-22T04:12:53.855Z,5.8
2023-02-22T04:14:55.815Z,5.8
2023-02-22T04:16:57.747Z,5.7
2023-02-22T04:18:59.696Z,5.7
2023-02-22T04:21:01.635Z,5.6
2023-02-22T04:23:06.648Z,5.6
2023-02-22T04:25:08.573Z,5.6
2023-02-22T04:29:12.478Z,5.5
2023-02-22T04:33:16.358Z,5.5
2023-02-22T04:35:18.322Z,5.4
2023-02-22T04:39:25.289Z,5.3
2023-02-22T04:41:27.198Z,5.3
2023-02-22T04:43:29.234Z,5.3
2023-02-22T04:45:31.132Z,5.2
2023-02-22T04:47:33.034Z,5.2
2023-02-22T04:49:36.832Z,5.2
2023-02-22T04:51:40.096Z,5.2
2023-02-22T04:53:42.058Z,5.3
2023-02-22T04:55:43.975Z,5.3
2023-02-22T04:56:46.454Z,5.3
2023-02-22T04:58:48.528Z,5.3
2023-02-22T05:00:50.341Z,5.3
2023-02-22T05:02:52.333Z,5.3
2023-02-22T05:04:57.309Z,5.2
2023-02-22T05:06:59.223Z,5.3
2023-02-22T05:09:01.160Z,5.3
2023-02-22T05:11:03.106Z,5.3
2023-02-22T05:13:05.010Z,5.3
2023-02-22T05:15:06.975Z,5.2
2023-02-22T05:17:08.894Z,5.2
2023-02-22T05:19:15.377Z,5.2
2023-02-22T05:21:17.484Z,5.2
2023-02-22T05:23:19.247Z,5.2
2023-02-22T05:25:21.251Z,5.2
2023-02-22T05:27:23.145Z,5.2
2023-02-22T05:29:25.100Z,5.2
2023-02-22T05:31:27.124Z,5.1
2023-02-22T05:33:32.023Z,5.1
2023-02-22T05:35:33.965Z,5.1
2023-02-22T05:37:35.902Z,5.1
2023-02-22T05:39:37.849Z,5.1
2023-02-22T05:41:39.816Z,5.1
2023-02-22T05:43:41.732Z,5.1
2023-02-22T05:45:43.679Z,5.2
2023-02-22T05:47:48.680Z,5.2
2023-02-22T05:49:50.615Z,5.1
2023-02-22T05:51:52.539Z,5.2
2023-02-22T05:56:58.920Z,5.2
2023-02-22T06:01:05.857Z,5.1
2023-02-22T06:03:07.793Z,5.2
2023-02-22T06:05:09.734Z,5.1
2023-02-22T06:09:13.613Z,5.2
2023-02-22T06:11:15.986Z,5.2
2023-02-22T06:13:17.475Z,5.2
2023-02-22T06:15:22.488Z,5.2
2023-02-22T06:17:24.408Z,5.2
2023-02-22T06:19:26.364Z,5.2
2023-02-22T06:21:28.286Z,5.2
2023-02-22T06:23:30.215Z,5.2
2023-02-22T06:25:32.183Z,5.2
2023-02-22T06:27:34.118Z,5.2
2023-02-22T06:31:41.225Z,5.2
2023-02-22T06:33:42.972Z,5.2
2023-02-22T06:39:48.809Z,5.1
2023-02-22T06:41:50.817Z,5.1
2023-02-22T06:43:55.754Z,5
2023-02-22T06:45:57.732Z,5
2023-02-22T06:47:59.636Z,5
2023-02-22T06:50:22.509Z,5
2023-02-22T06:52:24.438Z,5
2023-02-22T06:54:26.405Z,5
2023-02-22T06:56:31.406Z,5
2023-02-22T06:58:33.320Z,5
2023-02-22T07:00:35.333Z,5.1
2023-02-22T07:02:37.217Z,5.1
2023-02-22T07:04:40.417Z,5.1
2023-02-22T07:06:41.085Z,5.1
2023-02-22T07:08:43.016Z,5.1
2023-02-22T07:10:48.009Z,5.1
2023-02-22T07:12:49.951Z,5.2
2023-02-22T07:14:51.895Z,5.2
2023-02-22T07:16:53.945Z,5.2
2023-02-22T07:18:55.865Z,5.2
2023-02-22T07:20:57.794Z,5.2
2023-02-22T07:22:59.728Z,5.2
2023-02-22T07:25:04.744Z,5.1
2023-02-22T07:29:08.611Z,5.1
2023-02-22T07:31:10.544Z,5.1
2023-02-22T07:33:13.366Z,5.2
2023-02-22T07:44:27.726Z,5.2
2023-02-22T07:46:29.663Z,5.3
2023-02-22T07:48:31.596Z,5.3
2023-02-22T07:50:33.532Z,5.3
2023-02-22T07:52:38.540Z,5.3
2023-02-22T07:54:40.495Z,5.3
2023-02-22T07:56:42.447Z,5.2
2023-02-22T07:58:44.351Z,5.2
2023-02-22T08:00:46.302Z,5.2
2023-02-22T08:02:48.344Z,5.2
2023-02-22T08:04:50.203Z,5.3
2023-02-22T08:06:55.182Z,5.3
2023-02-22T08:08:57.248Z,5.3
2023-02-22T08:10:59.292Z,5.4
2023-02-22T08:13:01.350Z,5.4
2023-02-22T08:17:07.743Z,5.4
2023-02-22T08:19:07.489Z,5.5
2023-02-22T08:27:18.734Z,5.7
2023-02-22T08:33:24.672Z,5.7
2023-02-22T08:35:29.672Z,5.7
2023-02-22T08:37:31.501Z,5.8
2023-02-22T08:39:33.484Z,5.8
2023-02-22T08:40:35.958Z,5.8
2023-02-22T08:42:37.920Z,5.8
2023-02-22T08:44:39.852Z,5.7
2023-02-22T08:46:41.777Z,5.8
2023-02-22T08:48:46.775Z,6
2023-02-22T08:50:48.712Z,6
2023-02-22T08:52:50.654Z,6
2023-02-22T08:54:52.646Z,6.1
2023-02-22T08:56:54.577Z,6.2
2023-02-22T08:58:56.609Z,6.1
2023-02-22T09:00:58.596Z,6.1
2023-02-22T09:03:03.575Z,6.2
2023-02-22T09:05:05.495Z,6.3
2023-02-22T09:07:07.458Z,6.3
2023-02-22T09:09:09.407Z,6.4
2023-02-22T09:11:11.336Z,6.5
2023-02-22T09:13:13.332Z,6.5
2023-02-22T09:15:15.296Z,6.4
2023-02-22T09:17:20.249Z,6.4
2023-02-22T09:19:22.204Z,6.4
2023-02-22T09:21:24.161Z,6.4
2023-02-22T09:23:26.102Z,6.5
2023-02-22T09:25:28.085Z,6.5
2023-02-22T09:27:30.056Z,6.5
2023-02-22T09:29:31.954Z,6.6
2023-02-22T09:31:37.087Z,6.7
2023-02-22T09:33:38.913Z,6.7
2023-02-22T09:35:40.879Z,6.7
2023-02-22T09:40:47.312Z,6.8
2023-02-22T09:46:56.226Z,6.9
2023-02-22T09:48:58.193Z,7
2023-02-22T09:51:00.160Z,7.1
2023-02-22T09:53:02.149Z,7.1
2023-02-22T09:57:06.028Z,7.4
2023-02-22T09:59:11.036Z,7.6
2023-02-22T10:01:13.005Z,7.7
2023-02-22T10:03:14.984Z,7.8
2023-02-22T10:05:16.946Z,7.8
2023-02-22T10:07:18.916Z,7.9
2023-02-22T10:09:20.864Z,8.2
2023-02-22T10:11:22.822Z,8.1
2023-02-22T10:15:29.816Z,7.6
2023-02-22T10:17:31.784Z,7.5
2023-02-22T10:19:33.753Z,7.6
2023-02-22T10:21:35.699Z,7.8
2023-02-22T10:23:37.688Z,8.2
2023-02-22T10:25:39.646Z,8.4
2023-02-22T10:31:48.723Z,8.9
2023-02-22T10:34:05.452Z,8.7
2023-02-22T10:36:07.412Z,8.8
2023-02-22T10:38:09.406Z,8.9
2023-02-22T10:40:14.444Z,8.9
2023-02-22T10:44:18.389Z,9.2
2023-02-22T10:46:20.630Z,9.4
2023-02-22T10:48:22.345Z,9.3
2023-02-22T10:50:24.332Z,9.7
2023-02-22T10:52:26.270Z,9.7
2023-02-22T10:54:31.310Z,9.7
2023-02-22T10:56:33.285Z,9.7
2023-02-22T11:02:39.265Z,9.9
2023-02-22T11:06:43.185Z,10.4
2023-02-22T11:08:49.746Z,10.3
2023-02-22T11:10:51.675Z,10.3
2023-02-22T11:12:53.673Z,10
2023-02-22T11:14:55.625Z,10.2
2023-02-22T11:16:57.690Z,10.4
2023-02-22T11:18:59.597Z,10.3
2023-02-22T11:21:01.568Z,10.2
2023-02-22T11:23:06.598Z,10.8
2023-02-22T11:25:08.623Z,10.8
2023-02-22T11:27:10.575Z,11.1
2023-02-22T11:30:15.164Z,11.9
2023-02-22T11:32:17.075Z,11.9
2023-02-22T11:34:19.038Z,11.6
2023-02-22T11:36:24.071Z,11.7
2023-02-22T11:40:28.035Z,12.2
2023-02-22T11:42:30.006Z,12.8
2023-02-22T11:44:32.014Z,12.3
2023-02-22T11:46:34.033Z,12.3
2023-02-22T11:48:35.972Z,12.8
2023-02-22T11:50:41.035Z,12.7
2023-02-22T11:52:43.001Z,12.5
2023-02-22T11:54:44.979Z,12.2
2023-02-22T11:56:46.989Z,12
2023-02-22T11:58:48.965Z,12.5
2023-02-22T12:00:50.940Z,13.1
2023-02-22T12:03:00.832Z,13.6
2023-02-22T12:04:58.079Z,13.6
2023-02-22T12:06:59.969Z,13.5
2023-02-22T12:11:03.932Z,13.3
2023-02-22T12:15:07.910Z,13.4
2023-02-22T12:17:09.875Z,13.2
2023-02-22T12:19:14.914Z,12.8
2023-02-22T12:21:16.917Z,12.7
2023-02-22T12:23:18.900Z,12.7
2023-02-22T12:24:21.426Z,12.7
2023-02-22T12:26:23.410Z,12.7
2023-02-22T12:28:25.615Z,12.5
2023-02-22T12:30:27.392Z,12.8
2023-02-22T12:32:32.588Z,12.5
2023-02-22T12:34:34.451Z,12.3
2023-02-22T12:36:36.406Z,11.9
2023-02-22T12:38:38.384Z,11.8
2023-02-22T12:40:40.381Z,11.7
2023-02-22T12:46:49.415Z,11.7
2023-02-22T12:48:51.393Z,11.7
2023-02-22T12:50:53.374Z,11.8
2023-02-22T12:54:57.343Z,12
2023-02-22T12:56:59.322Z,12
2023-02-22T12:59:01.309Z,12
2023-02-22T13:01:07.251Z,12.2
2023-02-22T13:03:08.356Z,12.4
2023-02-22T13:05:10.357Z,12.5
2023-02-22T13:07:12.336Z,12.4
2023-02-22T13:09:14.313Z,12.1
2023-02-22T13:11:16.733Z,11.9
2023-02-22T13:13:18.291Z,11.9
2023-02-22T13:15:23.332Z,11.7
2023-02-22T13:19:27.324Z,11.5
2023-02-22T13:20:29.841Z,11.5
2023-02-22T13:22:31.812Z,11.5
2023-02-22T13:24:33.815Z,11.5
2023-02-22T13:26:35.811Z,11.5
2023-02-22T13:28:40.857Z,11.4
2023-02-22T13:30:42.913Z,11.3
2023-02-22T13:32:44.800Z,11.2
2023-02-22T13:34:46.786Z,11.2
2023-02-22T13:36:48.791Z,11.2
2023-02-22T13:38:50.767Z,11.2
2023-02-22T13:40:52.760Z,11.2
2023-02-22T13:42:57.825Z,11.1
2023-02-22T13:44:59.804Z,11.2
2023-02-22T13:47:01.754Z,11.1
2023-02-22T13:49:03.752Z,11.1
2023-02-22T13:51:05.855Z,11.1
2023-02-22T13:53:07.721Z,11.1
2023-02-22T13:55:09.703Z,11.1
2023-02-22T13:59:16.731Z,11.1
2023-02-22T14:01:18.930Z,11.1
2023-02-22T14:03:20.730Z,11.1
2023-02-22T14:05:22.758Z,11
2023-02-22T14:09:26.672Z,10.9
2023-02-22T14:11:31.725Z,11
2023-02-22T14:13:33.728Z,11
2023-02-22T14:15:35.724Z,11
2023-02-22T14:17:58.509Z,11
2023-02-22T14:22:02.639Z,11
2023-02-22T14:24:07.532Z,11
2023-02-22T14:26:09.515Z,10.9
2023-02-22T14:28:11.534Z,10.9
2023-02-22T14:30:13.559Z,10.9
2023-02-22T14:32:15.637Z,11
2023-02-22T14:34:17.501Z,11
2023-02-22T14:36:19.552Z,11
2023-02-22T14:38:24.609Z,11
2023-02-22T14:40:26.514Z,11
2023-02-22T14:42:28.546Z,11
2023-02-22T14:44:30.478Z,11
2023-02-22T14:46:32.471Z,11
2023-02-22T14:48:34.452Z,11
2023-02-22T14:50:36.444Z,11
2023-02-22T14:52:41.487Z,11
2023-02-22T14:58:47.443Z,10.8
2023-02-22T15:00:49.449Z,10.7
2023-02-22T15:02:51.546Z,10.7
2023-02-22T15:04:53.479Z,10.6
2023-02-22T15:06:58.494Z,10.6
2023-02-22T15:09:00.464Z,10.6
2023-02-22T15:11:02.439Z,10.6
2023-02-22T15:12:05.241Z,10.6
2023-02-22T15:14:12.264Z,10.6
2023-02-22T15:16:09.002Z,10.6
2023-02-22T15:18:10.951Z,10.5
2023-02-22T15:20:16.003Z,10.4
2023-02-22T15:22:17.989Z,10.4
2023-02-22T15:24:20.094Z,10.4
2023-02-22T15:26:21.957Z,10.4
2023-02-22T15:28:24.052Z,10.4
2023-02-22T15:30:25.996Z,10.4
2023-02-22T15:32:27.968Z,10.3
2023-02-22T15:34:32.990Z,10.3
2023-02-22T15:36:34.976Z,10.2
2023-02-22T15:38:36.967Z,10.2
2023-02-22T15:40:38.961Z,10.2
2023-02-22T15:42:40.948Z,10.2
2023-02-22T15:44:42.943Z,10.2
2023-02-22T15:52:53.962Z,10.1
2023-02-22T15:56:57.939Z,10.1
2023-02-22T15:58:59.921Z,10
2023-02-22T16:01:01.992Z,10.1
2023-02-22T16:03:06.956Z,10
2023-02-22T16:05:08.946Z,10
2023-02-22T16:07:10.931Z,10
2023-02-22T16:08:13.479Z,9.9
2023-02-22T16:10:15.442Z,10
2023-02-22T16:12:17.408Z,9.9
2023-02-22T16:14:19.402Z,9.9
2023-02-22T16:16:24.483Z,9.8
2023-02-22T16:18:26.477Z,9.8
2023-02-22T16:20:28.431Z,9.8
2023-02-22T16:22:30.425Z,9.8
2023-02-22T16:24:32.389Z,9.7
2023-02-22T16:26:34.370Z,9.7
2023-02-22T16:28:36.365Z,9.7
2023-02-22T16:30:41.458Z,9.7
2023-02-22T16:32:43.596Z,9.7
2023-02-22T16:34:45.435Z,9.7
2023-02-22T16:36:47.357Z,9.6
2023-02-22T16:38:49.338Z,9.6
2023-02-22T16:40:51.306Z,9.6
2023-02-22T16:44:58.366Z,9.5
2023-02-22T16:47:00.326Z,9.5
2023-02-22T16:49:02.305Z,9.5
2023-02-22T16:51:04.287Z,9.5
2023-02-22T16:53:06.266Z,9.5
2023-02-22T16:55:08.239Z,9.4
2023-02-22T16:57:10.229Z,9.4
2023-02-22T17:01:18.842Z,9.4
2023-02-22T17:03:20.738Z,9.4
2023-02-22T17:08:27.667Z,9.4
2023-02-22T17:10:29.634Z,9.5
2023-02-22T17:14:36.670Z,9.4
2023-02-22T17:16:38.629Z,9.3
2023-02-22T17:18:40.618Z,9.4
2023-02-22T17:22:45.572Z,9.3
2023-02-22T17:24:46.578Z,9.3
2023-02-22T17:26:51.590Z,9.2
2023-02-22T17:28:53.591Z,9.2
2023-02-22T17:32:57.546Z,9.2
2023-02-22T17:37:01.519Z,9.1
2023-02-22T17:39:03.517Z,9.1
2023-02-22T17:41:08.567Z,9.1
2023-02-22T17:43:10.534Z,9.1
2023-02-22T17:45:12.527Z,9.1
2023-02-22T17:49:16.489Z,9
2023-02-22T17:53:20.451Z,9
2023-02-22T17:57:27.498Z,8.9
2023-02-22T17:59:29.462Z,9
2023-02-22T18:03:54.279Z,8.9
2023-02-22T18:08:01.308Z,8.9
2023-02-22T18:10:03.290Z,8.8
2023-02-22T18:12:05.284Z,8.8
2023-02-22T18:14:09.179Z,8.8
2023-02-22T18:16:09.340Z,8.8
2023-02-22T18:18:11.221Z,8.8
2023-02-22T18:22:18.259Z,8.7
2023-02-22T18:24:20.262Z,8.7
2023-02-22T18:26:22.269Z,8.7
2023-02-22T18:28:24.212Z,8.7
2023-02-22T18:30:26.237Z,8.7
2023-02-22T18:32:28.237Z,8.7
2023-02-22T18:34:30.186Z,8.7
2023-02-22T18:36:35.213Z,8.8
2023-02-22T18:38:37.215Z,8.7
2023-02-22T18:40:39.197Z,8.7
2023-02-22T18:42:41.160Z,8.7
2023-02-22T18:44:43.162Z,8.7
2023-02-22T18:46:45.273Z,8.7
2023-02-22T18:48:47.145Z,8.7
2023-02-22T18:50:52.173Z,8.7
2023-02-22T18:55:58.644Z,8.6
2023-02-22T18:58:00.620Z,8.6
2023-02-22T19:00:02.628Z,8.6
2023-02-22T19:02:04.674Z,8.6
2023-02-22T19:04:09.664Z,8.6
2023-02-22T19:06:11.612Z,8.6
2023-02-22T19:08:13.605Z,8.6
2023-02-22T19:10:15.568Z,8.6
2023-02-22T19:12:17.545Z,8.6
2023-02-22T19:14:19.588Z,8.6
2023-02-22T19:16:22.025Z,8.6
2023-02-22T19:18:26.554Z,8.5
2023-02-22T19:20:28.534Z,8.6
2023-02-22T19:22:30.524Z,8.5
2023-02-22T19:24:32.500Z,8.5
2023-02-22T19:28:36.459Z,8.5
2023-02-22T19:30:38.484Z,8.5
2023-02-22T19:32:43.521Z,8.5
2023-02-22T19:34:45.461Z,8.5
2023-02-22T19:36:47.457Z,8.5
2023-02-22T19:38:49.412Z,8.5
2023-02-22T19:40:51.399Z,8.5
2023-02-22T19:42:53.388Z,8.5
2023-02-22T19:44:55.353Z,8.5
2023-02-22T19:47:00.398Z,8.5
2023-02-22T19:49:02.396Z,8.5
2023-02-22T19:52:06.880Z,8.5
2023-02-22T19:54:08.854Z,8.5
2023-02-22T19:56:10.839Z,8.5
2023-02-22T20:10:27.789Z,8.5
2023-02-22T20:16:36.807Z,8.5
2023-02-22T20:18:38.779Z,8.5
2023-02-22T20:26:46.774Z,8.5
2023-02-22T20:34:57.664Z,8.5
2023-02-22T20:43:08.669Z,8.5
2023-02-22T20:45:12.005Z,8.5
2023-02-22T20:47:12.613Z,8.5
2023-02-22T20:48:15.137Z,8.5
2023-02-22T20:50:17.129Z,8.5
2023-02-22T20:52:19.100Z,8.5
2023-02-22T20:54:21.077Z,8.5
2023-02-22T20:58:28.098Z,8.5
2023-02-22T21:08:37.999Z,8.4
2023-02-22T21:10:43.038Z,8.4
2023-02-22T21:12:45.006Z,8.4
2023-02-22T21:14:47.001Z,8.4
2023-02-22T21:16:49.091Z,8.4
2023-02-22T21:18:50.944Z,8.4
2023-02-22T21:20:52.942Z,8.3
2023-02-22T21:22:54.895Z,8.3
2023-02-22T21:24:59.961Z,8.3
2023-02-22T21:27:01.910Z,8.2
2023-02-22T21:31:05.994Z,8.3
2023-02-22T21:33:07.863Z,8.3
2023-02-22T21:35:09.842Z,8.2
2023-02-22T21:37:11.804Z,8.3
2023-02-22T21:39:16.859Z,8.2
2023-02-22T21:41:19.149Z,8.3
2023-02-22T21:43:20.795Z,8.2
2023-02-22T21:45:37.773Z,8.2
2023-02-22T21:47:39.753Z,8.2
2023-02-22T21:51:46.786Z,8.2
2023-02-22T21:53:48.777Z,8.2
2023-02-22T21:57:52.723Z,8.1
2023-02-22T22:01:56.774Z,8.1
2023-02-22T22:03:58.647Z,8
2023-02-22T22:06:03.692Z,8.1
2023-02-22T22:10:07.625Z,8
2023-02-22T22:12:09.618Z,7.9
2023-02-22T22:14:11.591Z,7.9
2023-02-22T22:16:13.656Z,7.8
2023-02-22T22:20:20.610Z,7.7
2023-02-22T22:22:22.580Z,7.7
2023-02-22T22:24:24.551Z,7.6
2023-02-22T22:26:26.590Z,7.6
2023-02-22T22:28:28.543Z,7.6
2023-02-22T22:30:30.504Z,7.6
2023-02-22T22:34:37.464Z,7.6
2023-02-22T22:41:45.935Z,7.7
2023-02-22T22:43:47.887Z,7.7
2023-02-22T22:49:56.847Z,7.7
2023-02-22T22:52:00.369Z,7.8
2023-02-22T22:54:02.302Z,7.8
2023-02-22T22:56:04.295Z,7.8
2023-02-22T23:02:13.280Z,7.8
2023-02-22T23:06:17.201Z,7.8
2023-02-22T23:08:19.176Z,7.8
2023-02-22T23:10:21.151Z,7.8
2023-02-22T23:14:25.100Z,7.8
2023-02-22T23:16:30.142Z,7.8
2023-02-22T23:18:32.114Z,7.8
2023-02-22T23:20:34.082Z,7.8
2023-02-22T23:24:38.016Z,7.8
2023-02-22T23:30:47.029Z,7.8
2023-02-22T23:35:53.451Z,7.8
2023-02-22T23:37:55.428Z,7.8
2023-02-22T23:39:57.433Z,7.8
2023-02-22T23:41:59.700Z,7.8
2023-02-22T23:44:04.423Z,7.8
2023-02-22T23:46:06.398Z,7.8
2023-02-22T23:48:08.373Z,7.8
2023-02-22T23:50:10.328Z,7.8
2023-02-22T23:52:12.307Z,7.8
2023-02-22T23:54:14.285Z,7.8
2023-02-22T23:56:16.270Z,7.8
2023-02-22T23:58:21.302Z,7.8
